createdAt,value
2023-12-18T00:01:26.660Z,0.03
2023-12-18T00:03:53.692Z,0.03
2023-12-18T00:06:20.629Z,0.05
2023-12-18T00:08:47.777Z,0.03
2023-12-18T00:11:15.900Z,0.06
2023-12-18T00:13:42.861Z,0.04
2023-12-18T00:16:10.314Z,0.04
2023-12-18T00:18:37.596Z,0.06
2023-12-18T00:21:05.080Z,0.06
2023-12-18T00:23:31.976Z,0.05
2023-12-18T00:25:58.977Z,0.02
2023-12-18T00:28:25.988Z,0.03
2023-12-18T00:30:53.292Z,-0.01
2023-12-18T00:33:21.082Z,-0.03
2023-12-18T00:35:48.061Z,0.01
2023-12-18T00:38:15.280Z,-0.14
2023-12-18T00:40:42.225Z,-0.09
2023-12-18T00:43:09.159Z,-0.04
2023-12-18T00:45:36.097Z,-0.04
2023-12-18T00:48:03.257Z,-0.03
2023-12-18T00:50:30.724Z,-0.06
2023-12-18T00:52:57.662Z,-0.07
2023-12-18T00:55:24.912Z,-0.21
2023-12-18T00:57:54.392Z,-0.10
2023-12-18T01:00:22.043Z,-0.09
2023-12-18T01:02:49.015Z,-0.11
2023-12-18T01:05:16.119Z,-0.19
2023-12-18T01:07:44.045Z,-0.15
2023-12-18T01:10:11.361Z,-0.12
2023-12-18T01:12:38.527Z,-0.12
2023-12-18T01:15:05.925Z,-0.11
2023-12-18T01:17:36.402Z,-0.25
2023-12-18T01:20:06.798Z,-0.27
2023-12-18T01:22:34.072Z,-0.20
2023-12-18T01:25:02.109Z,-0.18
2023-12-18T01:27:30.836Z,-0.22
2023-12-18T01:29:57.801Z,-0.18
2023-12-18T01:32:25.033Z,-0.18
2023-12-18T01:34:51.995Z,-0.16
2023-12-18T01:37:19.007Z,-0.17
2023-12-18T01:39:45.948Z,-0.19
2023-12-18T01:42:13.049Z,-0.26
2023-12-18T01:44:40.061Z,-0.24
2023-12-18T01:47:08.417Z,-0.22
2023-12-18T01:49:36.642Z,-0.18
2023-12-18T01:52:04.398Z,-0.33
2023-12-18T01:54:33.265Z,-0.25
2023-12-18T01:57:01.274Z,-0.22
2023-12-18T01:59:29.282Z,-0.21
2023-12-18T02:01:56.371Z,-0.23
2023-12-18T02:04:23.950Z,-0.22
2023-12-18T02:06:51.170Z,-0.22
2023-12-18T02:09:18.294Z,-0.25
2023-12-18T02:11:46.299Z,-0.28
2023-12-18T02:14:14.352Z,-0.27
2023-12-18T02:16:41.653Z,-0.41
2023-12-18T02:19:24.191Z,-0.28
2023-12-18T02:21:51.344Z,-0.31
2023-12-18T02:24:18.407Z,-0.34
2023-12-18T02:26:46.441Z,-0.42
2023-12-18T02:29:13.543Z,-0.47
2023-12-18T02:31:41.126Z,-0.53
2023-12-18T02:34:08.403Z,-0.59
2023-12-18T02:36:35.517Z,-0.63
2023-12-18T02:39:02.531Z,-0.66
2023-12-18T02:41:29.439Z,-0.89
2023-12-18T02:43:57.841Z,-0.70
2023-12-18T02:46:24.746Z,-0.75
2023-12-18T02:48:51.854Z,-0.80
2023-12-18T02:51:18.899Z,-0.85
2023-12-18T02:53:45.850Z,-0.90
2023-12-18T02:56:14.508Z,-0.98
2023-12-18T02:58:42.211Z,-1.00
2023-12-18T03:01:09.249Z,-1.04
2023-12-18T03:03:36.379Z,-1.06
2023-12-18T03:06:03.595Z,-1.07
2023-12-18T03:08:30.577Z,-1.07
2023-12-18T03:10:57.671Z,-1.11
2023-12-18T03:13:24.734Z,-1.15
2023-12-18T03:15:51.730Z,-1.19
2023-12-18T03:18:19.077Z,-1.22
2023-12-18T03:20:46.061Z,-1.20
2023-12-18T03:23:13.433Z,-1.27
2023-12-18T03:25:40.367Z,-1.33
2023-12-18T03:28:07.443Z,-1.25
2023-12-18T03:30:35.014Z,-1.28
2023-12-18T03:33:02.097Z,-1.28
2023-12-18T03:35:29.085Z,-1.31
2023-12-18T03:37:56.064Z,-1.35
2023-12-18T03:40:22.989Z,-1.36
2023-12-18T03:42:49.981Z,-1.35
2023-12-18T03:45:17.000Z,-1.41
2023-12-18T03:47:44.155Z,-1.41
2023-12-18T03:50:11.706Z,-1.61
2023-12-18T03:52:38.642Z,-1.54
2023-12-18T03:55:06.092Z,-1.55
2023-12-18T03:57:33.188Z,-1.60
2023-12-18T04:00:00.318Z,-1.66
2023-12-18T04:02:27.384Z,-1.73
2023-12-18T04:04:54.410Z,-1.73
2023-12-18T04:07:21.521Z,-1.71
2023-12-18T04:09:48.480Z,-1.68
2023-12-18T04:12:15.492Z,-1.70
2023-12-18T04:14:45.727Z,-1.70
2023-12-18T04:17:12.814Z,-1.71
2023-12-18T04:19:39.844Z,-1.72
2023-12-18T04:22:06.807Z,-1.75
2023-12-18T04:24:33.818Z,-1.78
2023-12-18T04:27:00.999Z,-1.79
2023-12-18T04:29:27.941Z,-1.81
2023-12-18T04:31:55.029Z,-1.82
2023-12-18T04:34:22.004Z,-1.82
2023-12-18T04:36:49.225Z,-1.80
2023-12-18T04:39:16.243Z,-1.80
2023-12-18T04:41:43.490Z,-1.78
2023-12-18T04:44:10.375Z,-1.81
2023-12-18T04:46:38.211Z,-1.78
2023-12-18T04:49:06.610Z,-1.87
2023-12-18T04:51:34.295Z,-1.84
2023-12-18T04:54:01.422Z,-1.96
2023-12-18T04:56:28.488Z,-2.10
2023-12-18T04:58:55.636Z,-2.10
2023-12-18T05:01:22.650Z,-2.18
2023-12-18T05:03:49.675Z,-2.20
2023-12-18T05:06:24.262Z,-2.24
2023-12-18T05:08:51.949Z,-2.31
2023-12-18T05:11:20.272Z,-2.29
2023-12-18T05:13:48.105Z,-2.38
2023-12-18T05:16:16.408Z,-2.38
2023-12-18T05:18:44.097Z,-2.36
2023-12-18T05:21:12.165Z,-2.36
2023-12-18T05:23:40.263Z,-2.37
2023-12-18T05:26:08.406Z,-2.31
2023-12-18T05:28:35.587Z,-2.32
2023-12-18T05:31:03.541Z,-2.32
2023-12-18T05:33:30.767Z,-2.29
2023-12-18T05:35:57.821Z,-2.29
2023-12-18T05:38:24.766Z,-2.26
2023-12-18T05:40:51.747Z,-3.79
2023-12-18T05:43:18.854Z,-2.17
2023-12-18T05:45:45.902Z,-2.13
2023-12-18T05:48:13.426Z,-2.13
2023-12-18T05:50:40.485Z,-2.05
2023-12-18T05:53:07.479Z,-1.97
2023-12-18T05:55:34.330Z,-1.93
2023-12-18T05:58:01.613Z,-1.88
2023-12-18T06:00:28.593Z,-1.85
2023-12-18T06:02:55.520Z,-1.89
2023-12-18T06:05:22.532Z,-1.86
2023-12-18T06:07:49.500Z,-1.81
2023-12-18T06:10:16.556Z,-1.82
2023-12-18T06:12:45.751Z,-1.80
2023-12-18T06:15:12.999Z,-1.79
2023-12-18T06:17:39.979Z,-1.75
2023-12-18T06:20:07.294Z,-1.75
2023-12-18T06:22:34.296Z,-1.70
2023-12-18T06:25:03.968Z,-1.68
2023-12-18T06:27:31.948Z,-1.64
2023-12-18T06:29:58.976Z,-1.62
2023-12-18T06:32:26.050Z,-1.75
2023-12-18T06:34:53.263Z,-1.56
2023-12-18T06:37:20.284Z,-1.56
2023-12-18T06:39:47.606Z,-1.52
2023-12-18T06:42:14.664Z,-1.49
2023-12-18T06:44:41.615Z,-1.48
2023-12-18T06:47:08.572Z,-1.43
2023-12-18T06:49:35.571Z,-1.42
2023-12-18T06:52:02.556Z,-1.42
2023-12-18T06:54:29.533Z,-1.37
2023-12-18T06:56:56.595Z,-1.36
2023-12-18T06:59:23.548Z,-1.48
2023-12-18T07:01:50.969Z,-1.28
2023-12-18T07:04:19.103Z,-1.29
2023-12-18T07:06:46.137Z,-1.26
2023-12-18T07:09:13.200Z,-1.27
2023-12-18T07:11:40.624Z,-1.22
2023-12-18T07:14:07.588Z,-1.17
2023-12-18T07:16:34.768Z,-1.13
2023-12-18T07:19:01.892Z,-1.09
2023-12-18T07:21:28.890Z,-1.06
2023-12-18T07:23:55.909Z,-1.05
2023-12-18T07:26:23.648Z,-1.03
2023-12-18T07:28:50.708Z,-1.02
2023-12-18T07:31:19.329Z,-1.04
2023-12-18T07:33:46.441Z,-1.02
2023-12-18T07:36:13.607Z,-0.98
2023-12-18T07:38:40.612Z,-0.97
2023-12-18T07:41:07.640Z,-0.97
2023-12-18T07:43:34.580Z,-0.93
2023-12-18T07:46:01.470Z,-0.89
2023-12-18T07:48:28.734Z,-0.87
2023-12-18T07:50:57.282Z,-0.82
2023-12-18T07:53:24.402Z,-0.75
2023-12-18T07:55:54.107Z,-0.71
2023-12-18T07:58:21.383Z,-0.72
2023-12-18T08:00:48.376Z,-0.65
2023-12-18T08:03:15.405Z,-0.64
2023-12-18T08:05:42.509Z,-0.60
2023-12-18T08:08:09.647Z,-0.63
2023-12-18T08:10:36.549Z,-0.58
2023-12-18T08:13:04.123Z,-0.53
2023-12-18T08:15:31.157Z,-0.47
2023-12-18T08:17:58.174Z,-0.40
2023-12-18T08:20:25.153Z,-0.40
2023-12-18T08:22:52.185Z,-0.42
2023-12-18T08:25:19.418Z,-0.32
2023-12-18T08:27:46.395Z,-0.32
2023-12-18T08:30:13.865Z,-0.25
2023-12-18T08:32:41.187Z,-0.25
2023-12-18T08:35:08.955Z,-0.22
2023-12-18T08:37:36.125Z,-0.20
2023-12-18T08:40:03.257Z,-0.25
2023-12-18T08:42:32.816Z,-0.03
2023-12-18T08:45:00.025Z,0.08
2023-12-18T08:47:28.158Z,0.05
2023-12-18T08:49:55.166Z,0.08
2023-12-18T08:52:22.069Z,0.13
2023-12-18T08:54:49.051Z,0.21
2023-12-18T08:57:16.031Z,0.24
2023-12-18T08:59:43.133Z,0.27
2023-12-18T09:02:10.969Z,0.28
2023-12-18T09:04:38.420Z,0.29
2023-12-18T09:07:05.483Z,0.32
2023-12-18T09:09:32.547Z,0.34
2023-12-18T09:11:59.671Z,0.37
2023-12-18T09:14:26.605Z,0.39
2023-12-18T09:16:53.592Z,0.47
2023-12-18T09:19:20.868Z,0.50
2023-12-18T09:21:47.902Z,0.54
2023-12-18T09:24:14.935Z,0.59
2023-12-18T09:26:42.160Z,0.62
2023-12-18T09:29:09.108Z,0.64
2023-12-18T09:31:36.187Z,0.66
2023-12-18T09:34:03.754Z,0.67
2023-12-18T09:36:30.937Z,0.69
2023-12-18T09:38:57.831Z,0.68
2023-12-18T09:41:26.254Z,0.68
2023-12-18T09:43:54.475Z,0.67
2023-12-18T09:46:26.346Z,0.67
2023-12-18T09:48:54.791Z,0.71
2023-12-18T09:51:23.597Z,0.78
2023-12-18T09:53:53.186Z,0.79
2023-12-18T09:56:25.148Z,0.79
2023-12-18T09:58:57.560Z,0.82
2023-12-18T10:01:24.840Z,0.82
2023-12-18T10:03:52.041Z,0.88
2023-12-18T10:06:19.765Z,0.88
2023-12-18T10:08:48.875Z,0.86
2023-12-18T10:11:27.745Z,0.86
2023-12-18T10:13:56.654Z,0.77
2023-12-18T10:16:23.872Z,0.83
2023-12-18T10:18:52.395Z,0.84
2023-12-18T10:21:26.949Z,0.81
2023-12-18T10:23:54.606Z,0.84
2023-12-18T10:26:22.819Z,0.84
2023-12-18T10:28:53.633Z,0.83
2023-12-18T10:31:21.705Z,0.80
2023-12-18T10:33:49.112Z,0.79
2023-12-18T10:36:17.921Z,0.78
2023-12-18T10:38:50.424Z,0.68
2023-12-18T10:41:25.441Z,0.76
2023-12-18T10:43:53.030Z,0.74
2023-12-18T10:46:23.655Z,0.66
2023-12-18T10:48:53.950Z,0.68
2023-12-18T10:51:23.808Z,0.73
2023-12-18T10:53:52.926Z,0.76
2023-12-18T10:56:22.717Z,0.78
2023-12-18T10:58:51.081Z,0.75
2023-12-18T11:01:19.194Z,0.71
2023-12-18T11:03:47.480Z,0.73
2023-12-18T11:06:15.541Z,0.78
2023-12-18T11:08:43.161Z,0.79
2023-12-18T11:11:11.408Z,0.67
2023-12-18T11:14:13.974Z,0.81
2023-12-18T11:16:49.712Z,0.79
2023-12-18T11:19:32.581Z,0.79
2023-12-18T11:22:06.184Z,0.79
2023-12-18T11:24:37.840Z,0.80
2023-12-18T11:27:08.940Z,0.67
2023-12-18T11:29:38.758Z,0.84
2023-12-18T11:32:06.296Z,0.86
2023-12-18T11:34:34.747Z,0.90
2023-12-18T11:37:02.026Z,0.91
2023-12-18T11:39:42.466Z,0.86
2023-12-18T11:42:12.822Z,0.89
2023-12-18T11:44:40.043Z,0.88
2023-12-18T11:47:07.441Z,0.86
2023-12-18T11:49:35.742Z,0.83
2023-12-18T11:52:26.768Z,0.90
2023-12-18T11:54:53.784Z,0.88
2023-12-18T11:57:22.862Z,0.90
2023-12-18T11:59:51.217Z,0.92
2023-12-18T12:02:19.263Z,0.92
2023-12-18T12:04:47.568Z,0.94
2023-12-18T12:07:14.581Z,0.92
2023-12-18T12:09:43.851Z,0.90
2023-12-18T12:12:12.935Z,0.92
2023-12-18T12:14:40.467Z,0.89
2023-12-18T12:17:07.427Z,0.92
2023-12-18T12:19:35.806Z,0.88
2023-12-18T12:22:03.064Z,0.87
2023-12-18T12:24:30.522Z,0.95
2023-12-18T12:26:58.166Z,0.96
2023-12-18T12:29:27.535Z,0.96
2023-12-18T12:32:00.332Z,0.85
2023-12-18T12:34:36.639Z,0.95
2023-12-18T12:37:04.311Z,0.96
2023-12-18T12:39:33.059Z,0.82
2023-12-18T12:42:00.068Z,0.97
2023-12-18T12:44:28.793Z,0.98
2023-12-18T12:46:55.965Z,0.92
2023-12-18T12:49:23.391Z,0.90
2023-12-18T12:51:50.432Z,1.03
2023-12-18T12:54:17.718Z,1.03
2023-12-18T12:56:46.638Z,1.06
2023-12-18T12:59:13.470Z,1.05
2023-12-18T13:01:40.400Z,1.06
2023-12-18T13:04:07.558Z,1.03
2023-12-18T13:06:34.642Z,0.93
2023-12-18T13:09:01.693Z,1.02
2023-12-18T13:11:28.851Z,1.05
2023-12-18T13:14:05.416Z,1.04
2023-12-18T13:16:38.613Z,1.02
2023-12-18T13:19:05.664Z,1.03
2023-12-18T13:21:32.794Z,1.06
2023-12-18T13:23:59.825Z,1.08
2023-12-18T13:26:26.908Z,1.09
2023-12-18T13:28:53.856Z,1.03
2023-12-18T13:31:21.343Z,1.03
2023-12-18T13:33:48.536Z,1.05
2023-12-18T13:36:15.861Z,1.03
2023-12-18T13:38:42.806Z,1.02
2023-12-18T13:41:10.560Z,1.05
2023-12-18T13:43:38.670Z,1.02
2023-12-18T13:46:05.951Z,1.06
2023-12-18T13:48:33.059Z,1.06
2023-12-18T13:51:01.567Z,1.05
2023-12-18T13:53:28.772Z,1.03
2023-12-18T13:55:55.770Z,1.03
2023-12-18T13:58:22.753Z,1.03
2023-12-18T14:00:49.773Z,1.02
2023-12-18T14:03:17.193Z,0.98
2023-12-18T14:05:44.397Z,0.99
2023-12-18T14:08:11.387Z,0.97
2023-12-18T14:10:38.417Z,0.97
2023-12-18T14:13:05.470Z,1.01
2023-12-18T14:15:32.634Z,1.04
2023-12-18T14:17:59.550Z,1.03
2023-12-18T14:20:28.829Z,0.96
2023-12-18T14:22:55.939Z,1.02
2023-12-18T14:25:23.090Z,1.01
2023-12-18T14:27:50.126Z,1.01
2023-12-18T14:30:19.523Z,1.04
2023-12-18T14:32:47.790Z,1.07
2023-12-18T14:35:15.187Z,1.08
2023-12-18T14:37:43.302Z,1.08
2023-12-18T14:40:11.751Z,1.06
2023-12-18T14:42:38.848Z,1.07
2023-12-18T14:45:07.062Z,1.09
2023-12-18T14:47:35.015Z,1.06
2023-12-18T14:50:02.296Z,1.07
2023-12-18T14:52:31.391Z,1.06
2023-12-18T14:54:59.183Z,1.07
2023-12-18T14:57:26.212Z,1.07
2023-12-18T14:59:53.735Z,1.02
2023-12-18T15:02:21.053Z,1.01
2023-12-18T15:04:48.035Z,1.01
2023-12-18T15:07:15.089Z,1.05
2023-12-18T15:09:42.174Z,1.03
2023-12-18T15:12:09.363Z,1.06
2023-12-18T15:14:36.305Z,1.07
2023-12-18T15:17:06.392Z,1.06
2023-12-18T15:19:37.236Z,1.03
2023-12-18T15:22:04.923Z,1.01
2023-12-18T15:24:32.424Z,0.97
2023-12-18T15:26:59.883Z,0.92
2023-12-18T15:29:28.190Z,1.01
2023-12-18T15:31:55.188Z,1.02
2023-12-18T15:34:22.258Z,1.03
2023-12-18T15:36:49.459Z,1.01
2023-12-18T15:39:16.750Z,0.89
2023-12-18T15:41:44.084Z,1.04
2023-12-18T15:44:11.078Z,1.03
2023-12-18T15:46:38.077Z,1.06
2023-12-18T15:49:05.681Z,1.01
2023-12-18T15:51:34.795Z,1.09
2023-12-18T15:54:01.982Z,1.07
2023-12-18T15:56:28.947Z,1.05
2023-12-18T15:58:55.843Z,1.04
2023-12-18T16:01:23.957Z,1.06
2023-12-18T16:03:51.211Z,1.05
2023-12-18T16:06:18.312Z,0.97
2023-12-18T16:08:45.273Z,0.79
2023-12-18T16:11:12.249Z,1.06
2023-12-18T16:13:39.156Z,1.06
2023-12-18T16:16:06.180Z,1.08
2023-12-18T16:18:35.722Z,1.07
2023-12-18T16:21:02.807Z,1.06
2023-12-18T16:23:30.930Z,1.02
2023-12-18T16:25:57.864Z,1.04
2023-12-18T16:28:24.907Z,1.04
2023-12-18T16:30:56.782Z,1.03
2023-12-18T16:33:26.585Z,1.04
2023-12-18T16:35:54.249Z,1.03
2023-12-18T16:38:21.274Z,1.02
2023-12-18T16:40:52.298Z,1.00
2023-12-18T16:43:19.341Z,1.00
2023-12-18T16:45:46.317Z,1.01
2023-12-18T16:48:13.570Z,0.95
2023-12-18T16:50:40.852Z,1.05
2023-12-18T16:53:07.853Z,1.02
2023-12-18T16:55:34.771Z,1.03
2023-12-18T16:58:02.686Z,1.03
2023-12-18T17:00:33.270Z,1.02
2023-12-18T17:03:01.419Z,1.02
2023-12-18T17:05:28.995Z,0.90
2023-12-18T17:07:56.964Z,1.02
2023-12-18T17:10:24.099Z,0.97
2023-12-18T17:12:51.271Z,1.04
2023-12-18T17:15:18.441Z,1.05
2023-12-18T17:17:45.535Z,0.96
2023-12-18T17:20:13.015Z,0.96
2023-12-18T17:22:41.050Z,0.94
2023-12-18T17:25:08.374Z,0.93
2023-12-18T17:27:35.526Z,0.93
2023-12-18T17:30:02.637Z,0.95
2023-12-18T17:32:32.294Z,0.99
2023-12-18T17:35:00.713Z,1.01
2023-12-18T17:37:28.180Z,1.00
2023-12-18T17:39:55.220Z,1.01
2023-12-18T17:42:23.307Z,1.02
2023-12-18T17:44:50.235Z,1.05
2023-12-18T17:47:17.490Z,1.05
2023-12-18T17:49:44.538Z,1.06
2023-12-18T17:52:11.542Z,1.04
2023-12-18T17:54:38.677Z,1.06
2023-12-18T17:57:05.632Z,1.07
2023-12-18T17:59:32.732Z,1.08
2023-12-18T18:01:59.705Z,1.12
2023-12-18T18:04:26.806Z,1.06
2023-12-18T18:06:54.828Z,1.13
2023-12-18T18:09:21.993Z,1.15
2023-12-18T18:11:48.924Z,1.14
2023-12-18T18:14:15.948Z,1.15
2023-12-18T18:16:42.936Z,1.13
2023-12-18T18:19:10.211Z,1.14
2023-12-18T18:21:37.370Z,1.15
2023-12-18T18:24:04.639Z,1.15
2023-12-18T18:26:31.632Z,1.13
2023-12-18T18:28:58.628Z,1.11
2023-12-18T18:31:25.696Z,1.13
2023-12-18T18:33:52.947Z,1.12
2023-12-18T18:36:22.703Z,1.14
2023-12-18T18:38:49.691Z,1.16
2023-12-18T18:41:17.386Z,1.14
2023-12-18T18:43:44.245Z,1.16
2023-12-18T18:46:14.528Z,1.15
2023-12-18T18:48:42.373Z,1.10
2023-12-18T18:51:09.798Z,1.17
2023-12-18T18:53:36.829Z,1.20
2023-12-18T18:56:07.224Z,1.18
2023-12-18T18:58:37.797Z,1.07
2023-12-18T19:01:05.253Z,1.14
2023-12-18T19:03:32.575Z,1.10
2023-12-18T19:06:00.291Z,1.14
2023-12-18T19:08:27.581Z,1.13
2023-12-18T19:10:55.241Z,1.01
2023-12-18T19:13:22.834Z,1.07
2023-12-18T19:15:51.805Z,1.13
2023-12-18T19:18:19.604Z,1.17
2023-12-18T19:20:47.265Z,1.18
2023-12-18T19:23:14.267Z,1.19
2023-12-18T19:25:41.392Z,1.16
2023-12-18T19:28:08.718Z,1.04
2023-12-18T19:30:35.910Z,1.16
2023-12-18T19:33:03.126Z,1.13
2023-12-18T19:35:30.059Z,1.15
2023-12-18T19:37:57.642Z,1.15
2023-12-18T19:40:24.712Z,1.15
2023-12-18T19:42:52.112Z,1.15
2023-12-18T19:45:19.412Z,1.06
2023-12-18T19:47:46.799Z,1.20
2023-12-18T19:50:14.246Z,1.05
2023-12-18T19:52:41.634Z,1.19
2023-12-18T19:55:08.877Z,1.19
2023-12-18T19:57:40.204Z,1.19
2023-12-18T20:00:13.842Z,1.20
2023-12-18T20:02:41.152Z,1.21
2023-12-18T20:05:08.461Z,1.19
2023-12-18T20:07:36.036Z,1.16
2023-12-18T20:10:04.819Z,1.16
2023-12-18T20:12:32.601Z,1.17
2023-12-18T20:14:59.617Z,1.20
2023-12-18T20:17:26.925Z,1.20
2023-12-18T20:19:56.811Z,1.22
2023-12-18T20:22:24.946Z,1.24
2023-12-18T20:24:52.646Z,1.27
2023-12-18T20:27:20.063Z,1.26
2023-12-18T20:29:49.314Z,1.25
2023-12-18T20:32:16.812Z,1.26
2023-12-18T20:34:43.866Z,1.27
2023-12-18T20:37:11.036Z,1.25
2023-12-18T20:39:38.035Z,1.23
2023-12-18T20:42:05.368Z,1.24
2023-12-18T20:44:32.597Z,1.11
2023-12-18T20:46:59.487Z,1.25
2023-12-18T20:49:27.743Z,1.26
2023-12-18T20:51:56.639Z,1.27
2023-12-18T20:54:23.825Z,1.25
2023-12-18T20:56:50.799Z,1.25
2023-12-18T20:59:18.108Z,1.11
2023-12-18T21:01:45.839Z,1.26
2023-12-18T21:04:13.070Z,1.24
2023-12-18T21:06:40.122Z,1.19
2023-12-18T21:09:07.382Z,1.13
2023-12-18T21:11:34.692Z,1.23
2023-12-18T21:14:01.646Z,1.24
2023-12-18T21:16:28.604Z,1.17
2023-12-18T21:18:56.102Z,1.27
2023-12-18T21:21:23.271Z,1.28
2023-12-18T21:23:50.416Z,1.26
2023-12-18T21:26:17.544Z,1.24
2023-12-18T21:28:44.541Z,1.25
2023-12-18T21:31:11.917Z,1.29
2023-12-18T21:33:39.510Z,1.27
2023-12-18T21:36:07.336Z,1.30
2023-12-18T21:38:34.278Z,1.32
2023-12-18T21:41:01.969Z,1.32
2023-12-18T21:43:30.374Z,1.32
2023-12-18T21:45:58.683Z,1.35
2023-12-18T21:48:26.459Z,1.37
2023-12-18T21:50:53.964Z,1.27
2023-12-18T21:53:22.981Z,1.36
2023-12-18T21:55:50.251Z,1.37
2023-12-18T21:58:17.348Z,1.37
2023-12-18T22:00:44.615Z,1.36
2023-12-18T22:03:11.650Z,1.39
2023-12-18T22:05:38.606Z,1.40
2023-12-18T22:08:06.716Z,1.41
2023-12-18T22:10:33.708Z,1.38
2023-12-18T22:13:00.750Z,1.38
2023-12-18T22:15:27.784Z,1.37
2023-12-18T22:17:54.938Z,1.33
2023-12-18T22:20:22.551Z,1.33
2023-12-18T22:22:50.330Z,1.34
2023-12-18T22:25:17.367Z,1.34
2023-12-18T22:27:45.248Z,1.34
2023-12-18T22:30:13.068Z,1.42
2023-12-18T22:32:40.218Z,1.43
2023-12-18T22:35:07.726Z,1.42
2023-12-18T22:37:34.831Z,1.37
2023-12-18T22:40:02.069Z,1.49
2023-12-18T22:42:31.844Z,1.47
2023-12-18T22:44:59.775Z,1.49
2023-12-18T22:47:26.769Z,1.50
2023-12-18T22:49:53.730Z,1.50
2023-12-18T22:52:20.730Z,1.50
2023-12-18T22:54:47.810Z,1.51
2023-12-18T22:57:14.797Z,1.52
2023-12-18T22:59:41.797Z,1.49
2023-12-18T23:02:08.742Z,1.52
2023-12-18T23:04:35.759Z,1.54
2023-12-18T23:07:02.919Z,1.52
2023-12-18T23:09:30.175Z,1.52
2023-12-18T23:11:57.057Z,1.54
2023-12-18T23:14:23.987Z,1.52
2023-12-18T23:16:51.050Z,1.52
2023-12-18T23:19:18.166Z,1.52
2023-12-18T23:21:45.188Z,1.51
2023-12-18T23:24:12.257Z,1.52
2023-12-18T23:26:39.200Z,1.53
2023-12-18T23:29:07.418Z,1.50
2023-12-18T23:31:34.649Z,1.48
2023-12-18T23:34:01.974Z,1.47
2023-12-18T23:36:29.033Z,1.44
2023-12-18T23:38:55.997Z,1.45
2023-12-18T23:41:23.133Z,1.45
2023-12-18T23:43:50.196Z,1.47
2023-12-18T23:46:17.156Z,1.51
2023-12-18T23:48:44.168Z,1.50
2023-12-18T23:51:11.144Z,1.50
2023-12-18T23:53:38.034Z,1.48
2023-12-18T23:56:06.699Z,1.44
2023-12-18T23:58:34.538Z,1.31
